Terminal Aerodrome Forecast
Issued by NWS Goodland, KS

Home | Current Version | Previous Version | Text Only | Print | Product List | Glossary On
Versions: 1 2 3 4 5 6 7 8 9 10 11 12 13 14 15 16 17 18 19 20 21 22 23
774
FTUS43 KGLD 280325 AAB
TAFGLD
TAF AMD
KGLD 280325Z 2803/2824 15007KT P6SM VCTS SCT080CB BKN200
      TEMPO 2804/2807 VRB20G30KT 2SM TSRA BKN040CB
     FM281000 17005KT 6SM BR SCT250
     FM281400 15005KT P6SM VCSH SCT100 SCT250
     FM281800 12009KT P6SM FEW250
     FM282300 16014G20KT P6SM VCTS SCT050CB=

USA.gov is the U.S. government's official web portal to all federal, state and local government web resources and services.